Aimwell, LA

1:22 PM CDT on July 25, 2014 (GMT -0500)
Alexandria Esler Regional (KESF) Elev 112 ft | 31.39 °N, 92.30 °W | Change Station

Current weather conditions updated 29 minutes ago

Mostly Cloudy
Mostly Cloudy
90 °F
Feels Like 98 °F
N
7
Wind Variable Wind from WNW

Today is forecast to be nearly the same temperature as yesterday.

Today
High -- | Low -- °F
--% Chance of Precip.
Yesterday
High -- | Low -- °F
Precip. -- in
6:19 AM 8:09 PM
Waning Crescent, 1% visible
Pressure 30.02 in
Visibility 10.0 miles
Clouds Few 3900 ft
Scattered Clouds 5500 ft
Mostly Cloudy 9000 ft
Heat Index 98 °F
Dew Point 73 °F
Humidity 57%
Rainfall 0.00 in
Snow Depth Not available.
UV 6 out of 12
Pollen 4.00 out of 12
Air Quality Not available.
Flu Activity Not available.
METAR KESF 251753Z AUTO 29006KT 10SM FEW039 SCT055 BKN090 32/23 A3002 RMK AO2 SLP164 T03220228 10339 20244 58010

More Conditions Fewer Conditions

Pressure 30.02 in
Visibility 10.0 miles
Clouds Few 3900 ft
Scattered Clouds 5500 ft
Mostly Cloudy 9000 ft
Heat Index 98 °F
Dew Point 73 °F
Humidity 57%
Rainfall 0.00 in
Snow Depth Not available.
UV 6 out of 12
Pollen 4.00 out of 12
Air Quality Not available.
Flu Activity Not available.
METAR KESF 251753Z AUTO 29006KT 10SM FEW039 SCT055 BKN090 32/23 A3002 RMK AO2 SLP164 T03220228 10339 20244 58010

More Conditions Fewer Conditions

10-Day Weather Forecast

Almanac

Astronomy

Jul. 25, 2014 Rise Set
Actual Time 6:19 AM CDT 8:09 PM CDT
Civil Twilight 5:52 AM CDT 8:36 PM CDT
Nautical Twilight 5:19 AM CDT 9:08 PM CDT
Astronomical Twilight 4:45 AM CDT 9:43 PM CDT
Moon 5:16 AM CDT 7:09 PM CDT
Length of Visible Light 14h 44m
Length of Day
13h 50m
Tomorrow will be 1m 16s shorter.
Waning Crescent, 1% of the Moon is Illuminated
Today
Waning Crescent
Jul 26
New
Aug 3
First Quarter
Aug 10
Full
Aug 17
Last Quarter

Today's Extremes

State Highs State Lows

Community

WunderPhotos

Upload Photos

1,737,372 photos uploaded!

Nearby

Snow Depth

Station Depth Elevation
No new snow has been reported.

Earthquake Activity

City Distance Mag. Time & Date
No recent earthquake activity has been reported nearby.
Minimum magnitude displayed is 2.5.

Coastal Water Temperatures

Place Temperature
No Stations Reporting

Nearby Weather Stations

Station Location Temp. Heat Index Dew Point Humidity Wind Precip. Elev Updated Type
MesoWest OLLA , Olla, LA 85 °F 82 °F - - North  at  - 0.00 in / hr 189 ft 11:40 AM CDT MADIS
MesoWest URANIA , Tullos, LA 86 °F 83 °F - - North  at  - 0.00 in / hr 111 ft 12:10 PM CDT MADIS
MesoWest GRAYSN , Clarks, LA 83 °F 81 °F - - North  at  - 0.00 in / hr 178 ft 11:00 AM CDT MADIS

Show More Stations Show Fewer Stations